Time;durP1;ratioP1;P1;durP2;ratioP2;P2;SDS_P1;SDS_P2;PMS_P1;PMS_P2;Temp;Humidity;BMP_temperature;BMP_pressure;BME280_temperature;BME280_humidity;BME280_pressure;Samples;Min_cycle;Max_cycle;Signal;HPM_P1;HPM_P2
2022/08/09 00:00:07;;;;;;;0.50;0.50;;;;;;;27.95;36.25;95203.19;5052730;28;20222;-68
2022/08/09 00:02:39;;;;;;;11.23;1.63;;;;;;;28.07;35.91;95208.38;5050991;28;20205;-67
2022/08/09 00:05:17;;;;;;;0.50;0.50;;;;;;;28.18;36.45;95211.25;5052239;28;20279;-66
2022/08/09 00:08:06;;;;;;;2.40;0.90;;;;;;;28.33;35.92;95213.84;5041717;28;20277;-67
2022/08/09 00:10:37;;;;;;;2.10;0.83;;;;;;;28.19;35.90;95224.41;5052237;28;20197;-67
2022/08/09 00:13:08;;;;;;;1.10;0.77;;;;;;;28.09;35.88;95224.19;5052476;28;20192;-67
2022/08/09 00:15:46;;;;;;;0.93;0.93;;;;;;;28.06;36.21;95217.63;5051827;28;20258;-69
2022/08/09 00:18:31;;;;;;;0.53;0.53;;;;;;;28.04;36.24;95217.19;5052178;28;20204;-66
2022/08/09 00:21:06;;;;;;;0.40;0.40;;;;;;;28.05;36.19;95213.34;5051825;28;20189;-67
2022/08/09 00:23:35;;;;;;;3.70;1.20;;;;;;;27.77;36.64;95218.22;5052270;28;20188;-67
2022/08/09 00:26:22;;;;;;;0.60;0.60;;;;;;;27.88;36.12;95219.19;5052020;28;20192;-66
2022/08/09 00:29:00;;;;;;;0.37;0.37;;;;;;;28.03;36.42;95223.72;5067202;28;20582;-67
2022/08/09 00:31:27;;;;;;;0.83;0.83;;;;;;;27.99;36.81;95226.34;5051926;28;20258;-67
2022/08/09 00:34:14;;;;;;;0.40;0.40;;;;;;;27.82;36.99;95226.00;5051631;28;20208;-66
2022/08/09 00:36:46;;;;;;;0.40;0.40;;;;;;;27.77;37.45;95223.59;5058180;28;20201;-67
2022/08/09 00:39:14;;;;;;;0.40;0.40;;;;;;;27.74;36.43;95218.91;5045360;28;20690;-66
2022/08/09 00:42:01;;;;;;;0.50;0.50;;;;;;;27.56;36.10;95217.78;5031881;28;20294;-67
2022/08/09 00:44:48;;;;;;;1.73;1.63;;;;;;;27.16;37.33;95220.00;5049527;28;20267;-69
2022/08/09 00:47:15;;;;;;;1.00;1.00;;;;;;;27.04;37.65;95229.75;5052062;28;20196;-68
2022/08/09 00:49:42;;;;;;;2.00;1.10;;;;;;;27.21;37.31;95228.56;5053087;28;20230;-67
2022/08/09 00:52:19;;;;;;;0.70;0.70;;;;;;;27.08;37.42;95223.69;5062535;28;20201;-68
2022/08/09 00:54:47;;;;;;;1.50;1.23;;;;;;;27.15;37.58;95234.59;5051231;28;20235;-67
2022/08/09 00:57:14;;;;;;;0.83;0.83;;;;;;;27.28;36.94;95233.34;5065187;28;20741;-67
2022/08/09 01:00:09;;;;;;;4.23;2.13;;;;;;;27.31;36.36;95240.72;5051682;28;20200;-66
2022/08/09 01:02:49;;;;;;;1.03;0.93;;;;;;;27.29;37.56;95245.66;5038960;28;20188;-70
2022/08/09 01:05:27;;;;;;;1.00;1.00;;;;;;;27.38;37.92;95246.25;5051499;28;20197;-65
2022/08/09 01:08:27;;;;;;;0.83;0.83;;;;;;;27.45;36.64;95255.25;5061896;28;20261;-67
2022/08/09 01:11:08;;;;;;;0.20;0.20;;;;;;;27.33;36.70;95252.72;5052891;28;20196;-67
2022/08/09 01:13:54;;;;;;;0.63;0.53;;;;;;;27.07;36.44;95257.06;5051131;28;20193;-68
2022/08/09 01:16:33;;;;;;;11.30;0.67;;;;;;;27.20;36.17;95247.75;5051013;28;20197;-68
2022/08/09 01:19:13;;;;;;;0.40;0.40;;;;;;;27.09;36.11;95249.44;5064922;28;20227;-68
2022/08/09 01:22:21;;;;;;;1.30;0.63;;;;;;;26.17;37.32;95249.88;5050761;28;20292;-67
2022/08/09 01:25:16;;;;;;;0.40;0.40;;;;;;;26.24;37.38;95250.06;5045157;28;20319;-67
2022/08/09 01:27:50;;;;;;;0.80;0.80;;;;;;;26.04;37.44;95221.53;5053603;28;20680;-66
2022/08/09 01:30:21;;;;;;;0.33;0.33;;;;;;;26.30;37.35;95235.25;5050934;28;20195;-68
2022/08/09 01:33:05;;;;;;;2.20;1.33;;;;;;;26.17;36.93;95225.72;5050845;28;20204;-68
2022/08/09 01:35:45;;;;;;;0.57;0.50;;;;;;;26.00;37.29;95228.72;5039624;28;20229;-68
2022/08/09 01:38:22;;;;;;;1.03;0.53;;;;;;;26.34;36.60;95222.69;5055156;28;20200;-68
2022/08/09 01:41:00;;;;;;;0.87;0.73;;;;;;;26.33;36.56;95210.38;5058316;28;20197;-67
2022/08/09 01:43:37;;;;;;;0.50;0.50;;;;;;;26.25;36.60;95208.66;5037631;28;20200;-67
2022/08/09 01:46:23;;;;;;;0.60;0.60;;;;;;;26.68;36.13;95200.50;5064594;28;20239;-67
2022/08/09 01:48:57;;;;;;;0.60;0.57;;;;;;;26.99;36.20;95205.81;5050840;28;20692;-66
2022/08/09 01:51:27;;;;;;;0.60;0.60;;;;;;;27.13;36.17;95204.56;5082398;28;20251;-67
2022/08/09 01:54:01;;;;;;;0.47;0.47;;;;;;;27.10;36.31;95184.50;5064529;28;20247;-67
2022/08/09 01:56:30;;;;;;;0.23;0.23;;;;;;;27.27;36.54;95199.47;5062471;28;20204;-66
2022/08/09 01:59:00;;;;;;;0.30;0.30;;;;;;;27.22;36.36;95197.06;5048823;28;20193;-67
2022/08/09 02:01:29;;;;;;;0.27;0.27;;;;;;;27.44;36.64;95194.50;5029938;28;20287;-68
2022/08/09 02:04:17;;;;;;;0.67;0.67;;;;;;;27.35;36.99;95195.84;5035458;28;20223;-67
2022/08/09 02:09:53;;;;;;;0.63;0.63;;;;;;;27.30;36.30;95196.09;5053311;28;20205;-66
2022/08/09 02:12:29;;;;;;;1.87;1.70;;;;;;;27.30;36.54;95206.84;5046609;28;20245;-68
2022/08/09 02:15:00;;;;;;;0.73;0.73;;;;;;;27.25;36.19;95190.97;5049927;28;20722;-68
2022/08/09 02:17:30;;;;;;;0.73;0.60;;;;;;;26.68;36.90;95189.75;5049707;28;20629;-67
2022/08/09 02:20:17;;;;;;;1.33;0.77;;;;;;;26.64;37.39;95204.97;5049906;28;20200;-68
2022/08/09 02:23:18;;;;;;;0.40;0.40;;;;;;;26.72;37.55;95198.69;5054384;28;20231;-67
2022/08/09 02:25:49;;;;;;;0.70;0.70;;;;;;;26.77;37.63;95198.41;5068942;28;20298;-66
2022/08/09 02:28:28;;;;;;;0.77;0.77;;;;;;;26.42;38.39;95194.09;5050244;28;20220;-67
2022/08/09 02:31:04;;;;;;;0.47;0.47;;;;;;;26.75;38.03;95184.53;5049331;28;20659;-68
2022/08/09 02:33:43;;;;;;;0.80;0.80;;;;;;;27.01;38.07;95203.56;5050011;28;20199;-66
2022/08/09 02:36:38;;;;;;;0.80;0.80;;;;;;;26.61;37.99;95213.75;5049359;28;20231;-67
2022/08/09 02:39:14;;;;;;;1.17;1.10;;;;;;;26.07;39.35;95218.19;5049882;28;20341;-67
2022/08/09 02:42:04;;;;;;;0.60;0.60;;;;;;;26.21;39.51;95217.75;5038166;28;20295;-67
2022/08/09 02:44:37;;;;;;;0.83;0.83;;;;;;;26.49;39.28;95219.22;5049101;28;20233;-67
2022/08/09 02:47:07;;;;;;;0.30;0.30;;;;;;;26.58;38.90;95206.41;5049792;28;20189;-67
2022/08/09 02:49:40;;;;;;;2.23;1.60;;;;;;;26.17;40.30;95206.16;5049316;28;20689;-68
2022/08/09 02:52:13;;;;;;;0.70;0.70;;;;;;;26.48;39.46;95214.97;5049746;28;20278;-67
2022/08/09 02:54:43;;;;;;;0.80;0.80;;;;;;;26.59;39.12;95215.22;5035991;28;20216;-68
2022/08/09 02:57:21;;;;;;;1.00;0.93;;;;;;;26.60;39.24;95220.25;5063750;28;20403;-67
2022/08/09 02:59:50;;;;;;;0.73;0.73;;;;;;;26.77;38.43;95217.22;5049498;28;20706;-67
2022/08/09 03:02:39;;;;;;;0.70;0.70;;;;;;;26.22;39.06;95225.47;5064210;28;20235;-66
2022/08/09 03:05:26;;;;;;;1.27;0.90;;;;;;;26.46;38.83;95225.28;5049946;28;20192;-67
2022/08/09 03:07:54;;;;;;;0.80;0.77;;;;;;;26.35;39.31;95218.88;5049094;28;20238;-67
2022/08/09 03:10:25;;;;;;;0.83;0.83;;;;;;;26.48;39.37;95206.91;5036014;28;20248;-67
2022/08/09 03:12:54;;;;;;;1.60;1.00;;;;;;;25.85;39.80;95210.66;5055676;28;20203;-68
2022/08/09 03:15:22;;;;;;;1.60;1.10;;;;;;;25.90;39.36;95196.97;5056064;28;20244;-67
2022/08/09 03:17:50;;;;;;;1.13;1.03;;;;;;;26.17;39.48;95206.91;5049218;28;20869;-68
2022/08/09 03:20:25;;;;;;;0.83;0.73;;;;;;;26.23;38.58;95221.66;5053378;28;20206;-67
2022/08/09 03:22:57;;;;;;;0.60;0.60;;;;;;;26.08;38.71;95224.31;5067340;28;20208;-68
2022/08/09 03:25:42;;;;;;;0.73;0.73;;;;;;;26.14;38.96;95218.34;5053385;28;20370;-66
2022/08/09 03:28:31;;;;;;;0.50;0.50;;;;;;;25.91;39.40;95225.41;5042445;28;20642;-67
2022/08/09 03:30:59;;;;;;;0.63;0.63;;;;;;;26.14;38.93;95207.59;5053308;28;20193;-68
2022/08/09 03:33:38;;;;;;;1.23;0.50;;;;;;;26.11;39.84;95221.75;5053127;28;20290;-70
2022/08/09 03:36:22;;;;;;;0.43;0.43;;;;;;;26.18;39.90;95216.53;5052762;28;20282;-66
2022/08/09 03:38:54;;;;;;;0.50;0.50;;;;;;;26.28;40.37;95240.19;5063351;28;20559;-65
2022/08/09 03:41:22;;;;;;;1.47;1.37;;;;;;;26.24;40.66;95233.94;5056042;28;20188;-67
2022/08/09 03:44:08;;;;;;;1.20;1.10;;;;;;;26.21;40.96;95233.84;5053113;28;20277;-65
2022/08/09 03:46:37;;;;;;;0.60;0.60;;;;;;;26.22;40.87;95241.59;5052734;28;20209;-65
2022/08/09 03:49:06;;;;;;;0.73;0.73;;;;;;;26.18;40.70;95235.34;5052922;28;20636;-67
2022/08/09 03:51:39;;;;;;;1.93;1.50;;;;;;;26.10;41.24;95249.72;5052873;28;20212;-67
2022/08/09 03:54:28;;;;;;;0.80;0.80;;;;;;;26.23;40.46;95220.88;5061858;28;20201;-65
2022/08/09 03:57:03;;;;;;;1.30;1.17;;;;;;;26.26;41.27;95242.44;5062242;28;20223;-67
2022/08/09 03:59:49;;;;;;;0.50;0.50;;;;;;;26.43;39.86;95236.72;5052874;28;20206;-66
2022/08/09 04:02:26;;;;;;;1.23;1.00;;;;;;;26.45;39.69;95237.16;5068965;28;20256;-69
2022/08/09 04:04:59;;;;;;;0.43;0.43;;;;;;;26.17;40.76;95244.50;5061753;28;20648;-70
2022/08/09 04:07:33;;;;;;;0.33;0.33;;;;;;;26.29;40.78;95239.09;5057065;28;20205;-67
2022/08/09 04:10:21;;;;;;;2.97;2.00;;;;;;;26.31;41.00;95246.78;5052758;28;20193;-67
2022/08/09 04:12:57;;;;;;;1.10;1.03;;;;;;;26.32;41.10;95241.06;5057681;28;20326;-67
2022/08/09 04:15:27;;;;;;;1.10;0.97;;;;;;;26.37;41.09;95237.34;5060411;28;20307;-67
2022/08/09 04:18:14;;;;;;;1.80;1.07;;;;;;;26.51;41.01;95238.47;5052232;28;20655;-66
2022/08/09 04:20:48;;;;;;;1.10;1.10;;;;;;;25.55;41.08;95238.97;5070352;28;20195;-67
2022/08/09 04:23:15;;;;;;;1.23;1.13;;;;;;;25.55;41.31;95236.28;5072082;28;20192;-66
2022/08/09 04:25:44;;;;;;;0.60;0.50;;;;;;;25.48;41.36;95238.78;5056946;28;20204;-67
2022/08/09 04:28:20;;;;;;;0.63;0.50;;;;;;;25.72;40.98;95249.41;5052073;28;20200;-66
2022/08/09 04:31:07;;;;;;;1.03;0.83;;;;;;;25.96;40.96;95238.56;5053470;28;20204;-68
2022/08/09 04:33:39;;;;;;;1.23;1.17;;;;;;;26.27;41.31;95243.22;5038043;28;20247;-66
2022/08/09 04:36:25;;;;;;;3.70;1.80;;;;;;;26.31;41.80;95244.88;5051578;28;20231;-67
2022/08/09 04:38:57;;;;;;;0.53;0.53;;;;;;;26.54;41.18;95248.53;5037991;28;20282;-68
2022/08/09 04:41:25;;;;;;;0.50;0.40;;;;;;;26.66;41.41;95251.13;5048061;28;20586;-67
2022/08/09 04:44:03;;;;;;;0.57;0.57;;;;;;;26.63;42.05;95262.56;5067743;28;20201;-68
2022/08/09 04:46:35;;;;;;;0.93;0.93;;;;;;;26.67;41.58;95259.97;5038177;28;20311;-66
2022/08/09 04:49:22;;;;;;;1.87;1.13;;;;;;;27.01;41.01;95262.72;5033412;28;20284;-66
2022/08/09 04:52:09;;;;;;;0.80;0.80;;;;;;;27.00;41.25;95271.94;5032028;28;20632;-65
2022/08/09 04:54:36;;;;;;;2.43;1.50;;;;;;;27.00;41.02;95255.81;5036379;28;20213;-71
2022/08/09 04:57:03;;;;;;;2.87;2.57;;;;;;;26.65;41.84;95271.06;5032662;28;20201;-70
2022/08/09 04:59:30;;;;;;;32.67;3.03;;;;;;;27.10;41.40;95261.78;5042822;28;20652;-73
2022/08/09 05:01:58;;;;;;;4.23;3.73;;;;;;;27.13;41.18;95272.59;5036266;28;20203;-71
2022/08/09 05:04:28;;;;;;;1.70;1.60;;;;;;;27.14;41.33;95265.28;5051096;28;20793;-69
2022/08/09 05:06:57;;;;;;;1.00;1.00;;;;;;;27.08;41.15;95269.41;5048315;28;20284;-69
2022/08/09 05:09:24;;;;;;;0.60;0.60;;;;;;;27.03;41.62;95257.78;5050266;28;20577;-69
2022/08/09 05:12:11;;;;;;;2.33;1.80;;;;;;;27.06;41.50;95269.75;5052654;28;20189;-70
2022/08/09 05:14:38;;;;;;;2.37;1.27;;;;;;;27.22;41.14;95277.78;5040588;28;20839;-69
2022/08/09 05:17:07;;;;;;;0.60;0.57;;;;;;;27.24;41.17;95275.53;5048054;28;20192;-69
2022/08/09 05:19:54;;;;;;;2.47;1.90;;;;;;;27.06;40.62;95263.59;5051493;28;20233;-69
2022/08/09 05:22:22;;;;;;;1.37;1.17;;;;;;;26.96;40.77;95276.44;5047080;28;20569;-69
2022/08/09 05:25:09;;;;;;;1.97;1.83;;;;;;;27.17;40.28;95275.38;5043627;28;20238;-71
2022/08/09 05:27:36;;;;;;;3.80;3.37;;;;;;;27.09;40.72;95285.19;5050391;28;20196;-69
2022/08/09 05:30:14;;;;;;;3.10;2.70;;;;;;;27.35;40.39;95282.75;5051048;28;20203;-70
2022/08/09 05:32:46;;;;;;;2.07;1.97;;;;;;;27.15;40.86;95277.63;5050563;28;20188;-71
2022/08/09 05:35:19;;;;;;;1.00;0.93;;;;;;;27.31;41.29;95286.47;5037474;28;20224;-75
2022/08/09 05:37:49;;;;;;;0.77;0.73;;;;;;;27.14;41.06;95281.44;5055337;28;20287;-71
2022/08/09 05:40:16;;;;;;;0.30;0.30;;;;;;;26.83;41.57;95288.44;5059378;28;20275;-73
2022/08/09 05:42:44;;;;;;;0.53;0.53;;;;;;;26.83;40.86;95282.28;5047162;28;20200;-72
2022/08/09 05:45:11;;;;;;;1.23;1.13;;;;;;;26.47;40.31;95286.00;5039062;28;20703;-69
2022/08/09 05:47:41;;;;;;;1.27;0.80;;;;;;;26.91;39.91;95278.63;5036473;28;20644;-69
2022/08/09 05:50:22;;;;;;;1.17;1.13;;;;;;;26.89;39.46;95262.84;5050859;28;20200;-73
2022/08/09 05:53:10;;;;;;;0.50;0.50;;;;;;;27.02;39.02;95277.72;5050606;28;20192;-75
2022/08/09 05:55:57;;;;;;;0.80;0.80;;;;;;;26.85;39.41;95278.13;5057182;28;20694;-70
2022/08/09 05:58:24;;;;;;;0.87;0.70;;;;;;;26.83;39.64;95283.06;5057386;28;20197;-69
2022/08/09 06:00:52;;;;;;;0.77;0.77;;;;;;;27.21;38.94;95270.84;5050197;28;20523;-71
2022/08/09 06:03:19;;;;;;;1.80;1.43;;;;;;;27.59;38.33;95279.00;5061826;28;20299;-72
2022/08/09 06:05:46;;;;;;;2.00;1.00;;;;;;;27.45;39.26;95278.69;5052231;28;20226;-69
2022/08/09 06:08:30;;;;;;;0.40;0.40;;;;;;;27.00;38.42;95250.41;5062561;28;20295;-73
2022/08/09 06:10:57;;;;;;;0.77;0.77;;;;;;;26.77;39.50;95279.06;5051866;28;20196;-76
2022/08/09 06:13:25;;;;;;;4.53;1.43;;;;;;;27.36;39.04;95280.81;5050658;28;20227;-68
2022/08/09 06:15:59;;;;;;;1.03;0.63;;;;;;;27.35;38.11;95273.88;5049885;28;20302;-67
2022/08/09 06:18:27;;;;;;;0.40;0.40;;;;;;;27.87;38.55;95287.66;5050046;28;20222;-71
2022/08/09 06:20:55;;;;;;;1.47;1.37;;;;;;;27.69;37.49;95278.44;5063661;28;20667;-74
2022/08/09 06:23:25;;;;;;;0.60;0.50;;;;;;;28.06;37.16;95268.81;5050067;28;20228;-69
2022/08/09 06:26:17;;;;;;;0.60;0.60;;;;;;;28.02;38.11;95273.34;5050128;28;20212;-71
2022/08/09 06:28:49;;;;;;;0.50;0.50;;;;;;;28.12;37.65;95280.09;5051993;28;20584;-72
2022/08/09 06:31:28;;;;;;;0.30;0.30;;;;;;;28.01;39.43;95276.41;5050099;28;20199;-70
2022/08/09 06:34:05;;;;;;;2.13;1.50;;;;;;;27.76;39.10;95275.88;5049995;28;20604;-70
2022/08/09 06:36:34;;;;;;;1.77;0.83;;;;;;;27.65;38.18;95277.56;5049592;28;20694;-70
2022/08/09 06:39:00;;;;;;;0.77;0.77;;;;;;;28.16;37.05;95270.91;5048875;28;20192;-72
2022/08/09 06:41:35;;;;;;;0.87;0.87;;;;;;;28.29;37.30;95271.53;5064104;28;20212;-72
2022/08/09 06:44:23;;;;;;;1.27;0.97;;;;;;;28.59;36.41;95273.25;5048288;28;20208;-71
2022/08/09 06:46:52;;;;;;;1.33;0.83;;;;;;;28.40;37.95;95272.50;5029908;28;20676;-69
2022/08/09 06:49:21;;;;;;;0.77;0.77;;;;;;;28.50;38.25;95275.34;5042654;28;20203;-70
2022/08/09 06:52:09;;;;;;;0.80;0.80;;;;;;;28.09;37.14;95262.69;5049439;28;20196;-69
2022/08/09 06:54:37;;;;;;;0.73;0.73;;;;;;;28.85;36.47;95267.88;5041768;28;20199;-70
2022/08/09 06:57:06;;;;;;;1.77;1.60;;;;;;;29.03;37.12;95267.38;5068865;28;20216;-68
2022/08/09 06:59:34;;;;;;;2.10;1.33;;;;;;;28.73;36.69;95273.47;5049831;28;20235;-69
2022/08/09 07:02:20;;;;;;;4.83;2.80;;;;;;;29.44;35.41;95255.66;5049246;28;20218;-67
2022/08/09 07:04:55;;;;;;;1.13;0.83;;;;;;;29.62;34.85;95262.03;5060190;28;20201;-68
2022/08/09 07:07:21;;;;;;;0.50;0.50;;;;;;;29.27;35.85;95261.59;5052248;28;20291;-70
2022/08/09 07:10:10;;;;;;;0.80;0.77;;;;;;;29.60;35.26;95258.94;5049504;28;20277;-67
2022/08/09 07:12:55;;;;;;;1.43;1.10;;;;;;;29.76;35.06;95264.97;5049576;28;20192;-67
2022/08/09 07:15:24;;;;;;;0.43;0.43;;;;;;;29.63;35.24;95261.69;5049119;28;20246;-67
2022/08/09 07:18:10;;;;;;;1.17;1.07;;;;;;;29.83;34.37;95267.75;5049590;28;20185;-69
2022/08/09 07:20:40;;;;;;;1.10;1.00;;;;;;;29.60;35.43;95264.34;5049222;28;20679;-69
2022/08/09 07:23:10;;;;;;;0.97;0.80;;;;;;;29.67;34.58;95267.91;5044725;28;20555;-66
2022/08/09 07:25:46;;;;;;;0.40;0.40;;;;;;;29.72;35.67;95266.84;5043701;28;20224;-70
2022/08/09 07:28:18;;;;;;;0.30;0.30;;;;;;;29.88;33.75;95259.31;5049655;28;20189;-66
2022/08/09 07:30:54;;;;;;;1.00;0.63;;;;;;;29.84;35.25;95263.88;5035517;28;20205;-67
2022/08/09 07:33:21;;;;;;;0.83;0.43;;;;;;;30.31;33.94;95255.94;5049708;28;20267;-68
2022/08/09 07:35:49;;;;;;;2.83;1.47;;;;;;;30.46;33.85;95260.31;5049305;28;20213;-67
2022/08/09 07:38:21;;;;;;;1.53;0.93;;;;;;;30.55;32.74;95255.38;5041517;28;20574;-67
2022/08/09 07:40:50;;;;;;;2.23;1.03;;;;;;;30.54;31.62;95259.25;5056840;28;20184;-66
2022/08/09 07:43:37;;;;;;;0.53;0.53;;;;;;;30.55;31.89;95260.78;5056764;28;20277;-69
2022/08/09 07:46:10;;;;;;;0.50;0.50;;;;;;;30.56;31.52;95256.16;5054837;28;20239;-69
2022/08/09 07:48:44;;;;;;;0.50;0.50;;;;;;;30.02;32.19;95261.41;5049383;28;20312;-67
2022/08/09 07:51:18;;;;;;;0.30;0.30;;;;;;;30.02;31.21;95266.81;5049121;28;20601;-69
2022/08/09 07:54:05;;;;;;;0.60;0.60;;;;;;;30.31;31.68;95264.03;5049018;28;20204;-69
2022/08/09 07:56:35;;;;;;;1.50;0.83;;;;;;;30.73;31.83;95259.00;5060802;28;20250;-69
2022/08/09 07:59:15;;;;;;;0.57;0.57;;;;;;;30.79;31.41;95254.81;5063085;28;20250;-64
2022/08/09 08:02:02;;;;;;;0.70;0.70;;;;;;;30.78;32.05;95255.94;5063056;28;20900;-67
2022/08/09 08:04:30;;;;;;;0.40;0.40;;;;;;;31.40;31.46;95246.00;5049111;28;20253;-65
2022/08/09 08:07:01;;;;;;;6.87;1.70;;;;;;;31.17;30.34;95247.38;5051821;28;20197;-65
2022/08/09 08:09:49;;;;;;;0.40;0.40;;;;;;;31.43;31.68;95250.66;5041553;28;20189;-68
2022/08/09 08:12:37;;;;;;;0.57;0.57;;;;;;;31.50;30.14;95239.84;5052353;28;20231;-71
2022/08/09 08:15:14;;;;;;;0.53;0.53;;;;;;;31.39;29.04;95243.66;5063372;28;20671;-66
2022/08/09 08:17:44;;;;;;;1.73;1.03;;;;;;;31.61;29.76;95242.59;5054563;28;20207;-69
2022/08/09 08:20:24;;;;;;;1.00;1.00;;;;;;;31.88;29.90;95233.81;5052280;28;20224;-63
2022/08/09 08:22:57;;;;;;;1.00;0.90;;;;;;;31.84;31.30;95224.13;5052342;28;20204;-67
2022/08/09 08:25:32;;;;;;;0.80;0.80;;;;;;;31.83;28.55;95236.09;5052469;28;20193;-70
2022/08/09 08:28:10;;;;;;;0.30;0.30;;;;;;;32.29;28.64;95225.41;5032483;28;20627;-69
2022/08/09 08:30:40;;;;;;;0.40;0.40;;;;;;;32.39;28.29;95219.97;5045608;28;20238;-68
2022/08/09 08:33:08;;;;;;;2.27;1.97;;;;;;;32.63;28.68;95224.69;5047233;28;20208;-68
2022/08/09 08:35:49;;;;;;;0.60;0.60;;;;;;;32.21;28.89;95221.16;5045274;28;20216;-64
2022/08/09 08:38:25;;;;;;;0.50;0.50;;;;;;;32.28;29.38;95221.91;5038826;28;20188;-67
2022/08/09 08:40:55;;;;;;;0.90;0.90;;;;;;;32.78;26.88;95218.09;5064487;28;20613;-70
2022/08/09 08:43:24;;;;;;;0.60;0.60;;;;;;;32.90;26.73;95221.56;5066416;28;20274;-68
2022/08/09 08:45:57;;;;;;;0.90;0.90;;;;;;;33.09;26.21;95213.03;5064111;28;20688;-64
2022/08/09 08:48:31;;;;;;;1.00;0.77;;;;;;;32.50;26.36;95204.53;5067985;28;20204;-69
2022/08/09 08:50:58;;;;;;;0.50;0.50;;;;;;;32.43;27.82;95220.81;5043257;28;20253;-70
2022/08/09 08:53:26;;;;;;;0.70;0.70;;;;;;;32.45;28.03;95215.75;5053425;28;20578;-66
2022/08/09 08:56:04;;;;;;;0.50;0.50;;;;;;;32.97;27.18;95216.16;5062416;28;20243;-65
2022/08/09 08:58:31;;;;;;;0.47;0.47;;;;;;;32.86;26.74;95212.66;5060593;28;20198;-68
2022/08/09 09:01:02;;;;;;;0.67;0.67;;;;;;;32.71;26.84;95199.09;5052059;28;20199;-65
2022/08/09 09:03:48;;;;;;;0.37;0.37;;;;;;;32.90;26.24;95205.28;5065948;28;20195;-68
2022/08/09 09:06:18;;;;;;;0.40;0.40;;;;;;;32.63;25.02;95192.13;5051406;28;20188;-70
2022/08/09 09:08:47;;;;;;;0.87;0.60;;;;;;;32.74;27.52;95192.88;5037172;28;20197;-64
2022/08/09 09:11:19;;;;;;;0.63;0.63;;;;;;;33.41;26.90;95186.56;5039062;28;20563;-66
2022/08/09 09:13:49;;;;;;;0.50;0.50;;;;;;;33.37;26.92;95191.22;5051695;28;20224;-67
2022/08/09 09:16:28;;;;;;;1.33;0.83;;;;;;;33.45;23.66;95184.66;5051041;28;20302;-72
2022/08/09 09:18:59;;;;;;;0.30;0.30;;;;;;;33.31;24.79;95181.94;5051398;28;20200;-67
2022/08/09 09:22:04;;;;;;;1.03;0.63;;;;;;;33.29;23.97;95178.81;5051295;28;20196;-70
2022/08/09 09:24:42;;;;;;;1.13;0.87;;;;;;;33.51;25.07;95183.06;5051124;28;20204;-67
2022/08/09 09:27:26;;;;;;;1.50;0.80;;;;;;;33.53;22.60;95172.56;5038871;28;20581;-70
2022/08/09 09:30:13;;;;;;;1.73;1.63;;;;;;;33.83;22.69;95170.09;5060214;28;20191;-68
2022/08/09 09:33:07;;;;;;;0.60;0.60;;;;;;;33.60;22.55;95167.09;5052718;28;20731;-68
2022/08/09 09:35:56;;;;;;;0.40;0.40;;;;;;;33.51;22.49;95166.75;5051163;28;20638;-69
2022/08/09 09:38:49;;;;;;;0.40;0.40;;;;;;;34.10;21.02;95162.97;5038388;28;20200;-70
2022/08/09 09:41:22;;;;;;;1.23;1.00;;;;;;;34.29;22.30;95165.16;5053060;28;20283;-67
2022/08/09 09:43:52;;;;;;;0.50;0.50;;;;;;;33.95;20.38;95155.25;5071411;28;20283;-64
2022/08/09 09:46:40;;;;;;;0.43;0.43;;;;;;;33.93;21.41;95158.38;5052500;28;20350;-71
2022/08/09 09:49:22;;;;;;;0.40;0.40;;;;;;;33.79;21.82;95159.22;5038602;28;20676;-71
2022/08/09 09:52:10;;;;;;;1.30;0.80;;;;;;;33.55;21.63;95154.72;5046471;28;20279;-72
2022/08/09 09:55:10;;;;;;;0.60;0.60;;;;;;;33.88;20.96;95153.38;5039330;28;20224;-67
2022/08/09 09:58:02;;;;;;;0.40;0.40;;;;;;;33.83;19.84;95153.78;5039666;28;20719;-69
2022/08/09 10:00:50;;;;;;;0.37;0.37;;;;;;;33.66;19.82;95155.44;5050310;28;20200;-66
2022/08/09 10:03:44;;;;;;;0.40;0.40;;;;;;;34.25;19.59;95161.66;5050689;28;20235;-66
2022/08/09 10:06:27;;;;;;;0.50;0.40;;;;;;;34.40;19.62;95151.44;5059440;28;20294;-70
2022/08/09 10:09:02;;;;;;;0.30;0.30;;;;;;;34.48;19.04;95151.03;5053792;28;20206;-69
2022/08/09 10:11:58;;;;;;;0.30;0.30;;;;;;;34.21;19.63;95141.13;5050277;28;20790;-69
2022/08/09 10:14:45;;;;;;;0.30;0.30;;;;;;;34.02;19.66;95156.00;5038281;28;20188;-69
2022/08/09 10:17:17;;;;;;;0.40;0.40;;;;;;;33.81;20.85;95150.69;5050537;28;20216;-66
2022/08/09 10:20:21;;;;;;;0.67;0.60;;;;;;;33.23;21.19;95151.28;5050382;28;20224;-67
2022/08/09 10:23:18;;;;;;;0.23;0.23;;;;;;;33.52;21.44;95147.31;5055684;28;20634;-65
2022/08/09 10:25:49;;;;;;;0.17;0.17;;;;;;;33.29;21.58;95148.94;5055209;28;20299;-70
2022/08/09 10:28:37;;;;;;;0.97;0.97;;;;;;;33.49;20.79;95145.41;5049655;28;20199;-69
2022/08/09 10:31:07;;;;;;;0.40;0.40;;;;;;;33.56;20.56;95141.88;5064174;28;20283;-70
2022/08/09 10:33:54;;;;;;;1.13;0.73;;;;;;;34.02;21.35;95134.25;5049873;28;20684;-67
2022/08/09 10:36:42;;;;;;;0.20;0.20;;;;;;;34.20;19.55;95139.56;5036319;28;20220;-66
2022/08/09 10:39:11;;;;;;;0.50;0.50;;;;;;;34.31;19.71;95135.59;5062784;28;20245;-69
2022/08/09 10:41:44;;;;;;;1.13;1.03;;;;;;;34.60;20.70;95136.94;5049849;28;20232;-72
2022/08/09 10:44:17;;;;;;;0.30;0.30;;;;;;;34.60;21.37;95131.47;5062028;28;20200;-73
2022/08/09 10:47:01;;;;;;;0.73;0.60;;;;;;;35.02;19.99;95135.75;5054341;28;20310;-65
2022/08/09 10:50:16;;;;;;;0.30;0.30;;;;;;;33.99;17.50;95129.63;5052125;28;20671;-67
2022/08/09 10:53:04;;;;;;;0.53;0.53;;;;;;;33.58;18.07;95142.25;5055451;28;20203;-70
2022/08/09 10:55:37;;;;;;;0.20;0.20;;;;;;;33.78;18.66;95129.72;5055202;28;20192;-69
2022/08/09 10:58:33;;;;;;;0.30;0.30;;;;;;;34.01;18.41;95131.94;5049787;28;20728;-70
2022/08/09 11:01:03;;;;;;;0.23;0.23;;;;;;;34.05;19.34;95133.44;5049816;28;20590;-70
2022/08/09 11:04:10;;;;;;;0.27;0.27;;;;;;;33.62;20.96;95132.16;5049803;28;20246;-68
2022/08/09 11:07:02;;;;;;;0.33;0.33;;;;;;;33.62;21.22;95138.34;5049863;28;20262;-67
2022/08/09 11:09:38;;;;;;;0.47;0.47;;;;;;;34.05;20.27;95138.13;5036261;28;20228;-70
2022/08/09 11:12:22;;;;;;;0.37;0.37;;;;;;;34.30;21.39;95134.06;5049573;28;20218;-66
2022/08/09 11:15:00;;;;;;;0.77;0.50;;;;;;;34.30;20.92;95117.75;5050419;28;20204;-69
2022/08/09 11:17:30;;;;;;;2.60;0.80;;;;;;;34.69;21.19;95134.50;5049688;28;20273;-66
2022/08/09 11:20:00;;;;;;;0.43;0.43;;;;;;;34.47;19.05;95133.16;5049615;28;20195;-72
2022/08/09 11:22:46;;;;;;;0.23;0.23;;;;;;;35.07;18.63;95129.09;5048968;28;20188;-69
2022/08/09 11:25:30;;;;;;;0.50;0.50;;;;;;;35.61;18.04;95128.06;5049075;28;20295;-66
2022/08/09 11:28:35;;;;;;;0.20;0.20;;;;;;;35.04;18.33;95127.16;5029123;28;20224;-66
2022/08/09 11:31:43;;;;;;;0.77;0.77;;;;;;;35.08;17.34;95117.81;5042659;28;20193;-66
2022/08/09 11:34:41;;;;;;;0.50;0.40;;;;;;;34.89;17.35;95125.78;5049096;28;20200;-65
2022/08/09 11:37:10;;;;;;;0.30;0.30;;;;;;;34.42;18.13;95119.97;5061547;28;20255;-68
2022/08/09 11:40:02;;;;;;;0.33;0.33;;;;;;;34.70;18.76;95124.41;5049807;28;20203;-69
2022/08/09 11:42:45;;;;;;;0.23;0.23;;;;;;;34.12;20.19;95119.81;5087594;28;20591;-68
2022/08/09 11:45:21;;;;;;;1.43;0.80;;;;;;;34.19;20.23;95121.72;5061523;28;20652;-67
2022/08/09 11:47:51;;;;;;;0.50;0.50;;;;;;;34.17;20.35;95097.63;5053112;28;20640;-67
2022/08/09 11:50:20;;;;;;;0.30;0.30;;;;;;;34.55;20.35;95118.31;5052799;28;20227;-67
2022/08/09 11:53:07;;;;;;;1.00;0.40;;;;;;;34.31;20.62;95108.38;5053063;28;20208;-66
2022/08/09 11:55:56;;;;;;;0.53;0.53;;;;;;;34.35;19.92;95103.69;5059084;28;20663;-65
2022/08/09 11:58:30;;;;;;;0.40;0.40;;;;;;;33.99;20.21;95124.19;5059190;28;20247;-66
2022/08/09 12:01:07;;;;;;;0.40;0.40;;;;;;;34.19;20.09;95106.16;5045990;28;20628;-72
2022/08/09 12:03:59;;;;;;;0.50;0.50;;;;;;;34.02;21.04;95093.47;5056200;28;20196;-70
2022/08/09 12:06:27;;;;;;;0.67;0.60;;;;;;;33.56;20.14;95122.84;5052369;28;20648;-69
2022/08/09 12:09:10;;;;;;;3.27;1.03;;;;;;;33.69;20.82;95110.34;5050223;28;20640;-72
2022/08/09 12:12:00;;;;;;;1.70;0.50;;;;;;;33.55;19.65;95115.88;5044324;28;20204;-67
2022/08/09 12:14:32;;;;;;;0.50;0.50;;;;;;;33.68;19.55;95097.94;5052252;28;20207;-71
2022/08/09 12:17:12;;;;;;;0.20;0.20;;;;;;;34.34;20.26;95096.69;5039325;28;20209;-66
2022/08/09 12:19:59;;;;;;;1.00;0.80;;;;;;;34.24;19.61;95092.13;5041328;28;20746;-68
2022/08/09 12:22:27;;;;;;;0.80;0.80;;;;;;;33.87;20.52;95083.06;5052261;28;20668;-68
2022/08/09 12:25:12;;;;;;;0.30;0.30;;;;;;;34.48;21.08;95084.94;5052147;28;20250;-65